Time;durP1;ratioP1;P1;durP2;ratioP2;P2;SDS_P1;SDS_P2;PMS_P1;PMS_P2;Temp;Humidity;BMP_temperature;BMP_pressure;BME280_temperature;BME280_humidity;BME280_pressure;Samples;Min_cycle;Max_cycle;Signal;HPM_P1;HPM_P2
2022/06/13 00:03:08;;;;;;;13.43;5.93;;;;;18.30;96386.00;;;;8274637;28;20238;-70
2022/06/13 00:07:11;;;;;;;12.48;6.30;;;;;18.30;96416.00;;;;8265445;28;20208;-70
2022/06/13 00:11:18;;;;;;;12.82;6.28;;;;;18.30;96451.00;;;;8275222;28;20720;-70
2022/06/13 00:15:21;;;;;;;9.35;6.38;;;;;18.20;96457.00;;;;8279808;28;20882;-70
2022/06/13 00:19:24;;;;;;;11.48;6.05;;;;;18.20;96449.00;;;;8274658;28;20247;-73
2022/06/13 00:23:28;;;;;;;14.63;6.43;;;;;18.30;96456.00;;;;8279071;28;20228;-70
2022/06/13 00:27:33;;;;;;;8.98;5.18;;;;;18.30;96436.00;;;;8263964;28;20198;-69
2022/06/13 00:31:36;;;;;;;8.07;4.63;;;;;18.20;96415.00;;;;8272311;28;20205;-69
2022/06/13 00:35:40;;;;;;;5.82;4.50;;;;;18.10;96424.00;;;;8284174;28;20272;-70
2022/06/13 00:39:43;;;;;;;7.85;4.93;;;;;18.10;96422.00;;;;8264667;28;20228;-67
2022/06/13 00:43:48;;;;;;;8.75;4.97;;;;;18.10;96416.00;;;;8275101;28;20308;-69
2022/06/13 00:47:53;;;;;;;6.10;5.28;;;;;18.10;96404.00;;;;8286706;28;20213;-69
2022/06/13 00:52:09;;;;;;;5.72;4.60;;;;;18.10;96392.00;;;;8279509;28;20686;-69
2022/06/13 00:56:17;;;;;;;6.70;4.80;;;;;18.20;96385.00;;;;8272901;28;20282;-68
2022/06/13 01:00:22;;;;;;;10.18;4.95;;;;;18.00;96373.00;;;;8285737;28;20229;-68
2022/06/13 01:04:26;;;;;;;7.82;5.28;;;;;18.00;96373.00;;;;8271390;28;20242;-68
2022/06/13 01:08:32;;;;;;;9.27;5.03;;;;;18.00;96368.00;;;;8272124;28;20285;-67
2022/06/13 01:12:38;;;;;;;11.70;5.13;;;;;17.90;96373.00;;;;8272291;28;20214;-68
2022/06/13 01:16:53;;;;;;;7.57;5.10;;;;;18.00;96364.00;;;;8284343;28;20822;-66
2022/06/13 01:21:20;;;;;;;9.75;4.97;;;;;18.10;96368.00;;;;8279205;28;20277;-68
2022/06/13 01:25:45;;;;;;;6.80;4.65;;;;;18.10;96381.00;;;;8266073;28;20778;-67
2022/06/13 01:29:54;;;;;;;7.75;4.75;;;;;18.00;96386.00;;;;8268268;28;20672;-69
2022/06/13 01:34:09;;;;;;;8.02;4.90;;;;;18.00;96398.00;;;;8274103;28;20236;-71
2022/06/13 01:38:25;;;;;;;6.80;4.43;;;;;17.90;96451.00;;;;8278274;28;20202;-73
2022/06/13 01:42:38;;;;;;;7.20;4.22;;;;;17.80;96510.00;;;;8278589;28;20313;-71
2022/06/13 01:46:48;;;;;;;20.35;5.38;;;;;17.70;96432.00;;;;8282935;28;20222;-70
2022/06/13 01:51:02;;;;;;;7.20;4.60;;;;;17.80;96486.00;;;;8269365;28;20715;-73
2022/06/13 01:55:15;;;;;;;8.05;4.30;;;;;17.70;96501.00;;;;8281864;28;20202;-72
2022/06/13 01:59:22;;;;;;;5.60;4.53;;;;;17.70;96517.00;;;;8285233;28;20289;-71
2022/06/13 02:03:30;;;;;;;13.90;4.43;;;;;17.70;96486.00;;;;8284164;28;20244;-74
2022/06/13 02:07:39;;;;;;;5.38;3.53;;;;;17.60;96473.00;;;;8279832;28;20202;-71
2022/06/13 02:12:02;;;;;;;9.02;4.07;;;;;17.60;96522.00;;;;8285119;28;20802;-70
2022/06/13 02:16:12;;;;;;;6.57;3.97;;;;;17.60;96541.00;;;;8282116;28;20678;-71
2022/06/13 02:20:20;;;;;;;7.63;3.10;;;;;17.60;96536.00;;;;8268063;28;20207;-69
2022/06/13 02:24:29;;;;;;;6.15;3.80;;;;;17.60;96501.00;;;;8277395;28;20250;-71
2022/06/13 02:28:38;;;;;;;6.20;3.75;;;;;17.50;96455.00;;;;8276595;28;20223;-70
2022/06/13 02:32:47;;;;;;;7.50;3.38;;;;;17.50;96440.00;;;;8271851;28;20233;-72
2022/06/13 02:36:58;;;;;;;7.75;3.47;;;;;17.50;96428.00;;;;8276289;28;20195;-73
2022/06/13 02:41:07;;;;;;;5.35;3.50;;;;;17.50;96390.00;;;;8267572;28;20201;-70
2022/06/13 02:45:15;;;;;;;6.70;3.50;;;;;17.50;96388.00;;;;8275428;28;20219;-70
2022/06/13 02:49:23;;;;;;;6.32;3.88;;;;;17.50;96399.00;;;;8285372;28;20244;-71
2022/06/13 02:53:33;;;;;;;7.28;3.67;;;;;17.50;96371.00;;;;8284822;28;20217;-70
2022/06/13 02:57:54;;;;;;;5.80;3.60;;;;;17.40;96384.00;;;;8279159;28;20229;-70
2022/06/13 03:02:01;;;;;;;4.93;3.45;;;;;17.40;96374.00;;;;8308962;23;20235;-71
2022/06/13 03:06:09;;;;;;;9.32;3.55;;;;;17.40;96377.00;;;;8244310;28;20237;-70
2022/06/13 03:10:17;;;;;;;4.68;3.70;;;;;17.30;96389.00;;;;8257048;28;20306;-68
2022/06/13 03:14:39;;;;;;;6.18;3.50;;;;;17.30;96389.00;;;;8257431;28;20213;-69
2022/06/13 03:18:49;;;;;;;7.00;3.65;;;;;17.30;96386.00;;;;8259105;28;20208;-68
2022/06/13 03:22:58;;;;;;;10.65;3.80;;;;;17.20;96378.00;;;;8242693;28;20196;-67
2022/06/13 03:27:07;;;;;;;7.43;3.95;;;;;17.20;96379.00;;;;8247908;28;20233;-67
2022/06/13 03:31:16;;;;;;;8.75;3.92;;;;;17.20;96384.00;;;;8235870;28;20739;-67
2022/06/13 03:35:20;;;;;;;6.75;3.90;;;;;17.20;96391.00;;;;8258003;28;20226;-67
2022/06/13 03:39:28;;;;;;;6.05;4.32;;;;;17.30;96401.00;;;;8242364;28;20226;-68
2022/06/13 03:43:37;;;;;;;5.63;4.10;;;;;17.30;96415.00;;;;8244558;28;20202;-68
2022/06/13 03:47:48;;;;;;;8.82;4.30;;;;;17.30;96423.00;;;;8257908;28;20806;-68
2022/06/13 03:51:54;;;;;;;8.57;4.10;;;;;17.30;96430.00;;;;8240106;28;20195;-67
2022/06/13 03:56:02;;;;;;;9.75;4.50;;;;;17.30;96443.00;;;;8242609;28;20816;-68
2022/06/13 04:00:10;;;;;;;6.97;4.22;;;;;17.30;96440.00;;;;8253208;28;20238;-68
2022/06/13 04:04:18;;;;;;;5.78;3.97;;;;;17.40;96436.00;;;;8246479;28;20237;-68
2022/06/13 04:08:22;;;;;;;10.52;4.50;;;;;17.40;96429.00;;;;8246160;28;20202;-66
2022/06/13 04:12:45;;;;;;;5.65;4.60;;;;;17.40;96419.00;;;;8241244;28;20545;-66
2022/06/13 04:16:58;;;;;;;5.40;4.47;;;;;17.50;96417.00;;;;8246066;28;20708;-66
2022/06/13 04:21:11;;;;;;;7.53;4.35;;;;;17.50;96415.00;;;;8251694;28;20194;-65
2022/06/13 04:25:25;;;;;;;7.43;5.07;;;;;17.60;96407.00;;;;8234221;28;20317;-65
2022/06/13 04:29:32;;;;;;;10.45;5.25;;;;;17.70;96412.00;;;;8241927;28;20755;-65
2022/06/13 04:33:39;;;;;;;9.98;5.13;;;;;17.80;96418.00;;;;8252751;28;20210;-66
2022/06/13 04:37:45;;;;;;;12.98;5.55;;;;;17.90;96428.00;;;;8253279;28;20205;-65
2022/06/13 04:41:50;;;;;;;10.73;5.32;;;;;17.90;96431.00;;;;8247516;28;21032;-66
2022/06/13 04:45:57;;;;;;;8.90;5.88;;;;;18.00;96428.00;;;;8238121;28;20687;-66
2022/06/13 04:50:05;;;;;;;11.80;5.85;;;;;18.00;96428.00;;;;8241098;28;20321;-65
2022/06/13 04:54:16;;;;;;;10.52;5.43;;;;;18.00;96426.00;;;;8245703;28;20730;-66
2022/06/13 04:58:24;;;;;;;8.35;5.18;;;;;17.90;96422.00;;;;8251886;28;20223;-66
2022/06/13 05:02:37;;;;;;;8.52;5.85;;;;;17.80;96419.00;;;;8248444;28;20741;-69
2022/06/13 05:06:44;;;;;;;14.82;5.85;;;;;17.70;96432.00;;;;8251822;28;20702;-66
2022/06/13 05:10:52;;;;;;;9.07;5.47;;;;;17.80;96428.00;;;;8236361;28;20206;-64
2022/06/13 05:15:01;;;;;;;11.63;6.20;;;;;18.00;96428.00;;;;8244058;28;20373;-66
2022/06/13 05:19:21;;;;;;;6.10;5.05;;;;;18.60;96420.00;;;;8247939;28;20203;-65
2022/06/13 05:23:42;;;;;;;9.27;5.65;;;;;19.00;96414.00;;;;8240337;28;20651;-68
2022/06/13 05:27:47;;;;;;;11.98;5.28;;;;;19.20;96417.00;;;;8242441;28;20224;-66
2022/06/13 05:31:50;;;;;;;7.00;4.38;;;;;19.10;96423.00;;;;8238117;28;20285;-64
2022/06/13 05:35:56;;;;;;;8.38;5.78;;;;;19.40;96422.00;;;;8250941;28;20217;-66
2022/06/13 05:39:59;;;;;;;6.13;4.72;;;;;19.80;96417.00;;;;8253993;28;20230;-66
2022/06/13 05:44:04;;;;;;;7.78;4.95;;;;;20.20;96431.00;;;;8247096;28;20422;-66
2022/06/13 05:48:12;;;;;;;9.48;5.85;;;;;20.60;96433.00;;;;8234855;28;20255;-67
2022/06/13 05:52:16;;;;;;;9.07;5.78;;;;;21.10;96438.00;;;;8249899;28;20237;-67
2022/06/13 05:56:20;;;;;;;8.40;4.70;;;;;21.40;96435.00;;;;8249308;28;20202;-67
2022/06/13 06:00:28;;;;;;;7.60;5.25;;;;;21.20;96446.00;;;;8247659;28;20242;-66
2022/06/13 06:04:31;;;;;;;9.27;5.05;;;;;20.60;96442.00;;;;8243799;28;20242;-67
2022/06/13 06:08:36;;;;;;;6.60;5.05;;;;;20.70;96435.00;;;;8246386;28;20210;-67
2022/06/13 06:12:40;;;;;;;9.55;4.93;;;;;21.00;96443.00;;;;8246797;28;20219;-68
2022/06/13 06:16:44;;;;;;;8.38;4.82;;;;;21.50;96453.00;;;;8247076;28;20286;-67
2022/06/13 06:20:49;;;;;;;6.07;4.47;;;;;21.40;96458.00;;;;8251393;28;20207;-69
2022/06/13 06:24:52;;;;;;;8.35;4.80;;;;;21.60;96461.00;;;;8254045;28;20845;-69
2022/06/13 06:28:55;;;;;;;11.18;4.75;;;;;21.80;96464.00;;;;8257690;28;20234;-68
2022/06/13 06:33:01;;;;;;;8.93;3.88;;;;;21.80;96468.00;;;;8255700;28;20857;-67
2022/06/13 06:37:05;;;;;;;6.35;3.90;;;;;22.30;96475.00;;;;8252483;28;20612;-68
2022/06/13 06:41:08;;;;;;;3.70;3.30;;;;;22.60;96479.00;;;;8250724;28;20867;-68
2022/06/13 06:45:12;;;;;;;4.13;3.65;;;;;22.60;96477.00;;;;8255343;28;20229;-67
2022/06/13 06:49:16;;;;;;;5.38;3.63;;;;;22.60;96484.00;;;;8257521;28;20195;-66
2022/06/13 06:53:22;;;;;;;4.70;3.97;;;;;22.00;96480.00;;;;8252808;28;20196;-68
2022/06/13 07:01:46;;;;;;;6.43;3.15;;;;;22.20;96487.00;;;;8253140;28;20234;-67
2022/06/13 07:05:51;;;;;;;7.00;3.55;;;;;22.80;96484.00;;;;8252057;28;20229;-68
2022/06/13 07:09:54;;;;;;;7.28;3.90;;;;;23.20;96474.00;;;;8253809;28;20195;-67
2022/06/13 07:13:57;;;;;;;6.55;3.22;;;;;23.70;96484.00;;;;8253896;28;20210;-67
2022/06/13 07:18:00;;;;;;;6.63;3.60;;;;;24.10;96490.00;;;;8247013;28;20262;-66
2022/06/13 07:22:07;;;;;;;5.13;2.80;;;;;24.40;96486.00;;;;8254843;28;20668;-66
2022/06/13 07:26:11;;;;;;;6.93;3.33;;;;;24.50;96487.00;;;;8249749;28;20656;-66
2022/06/13 07:30:16;;;;;;;5.43;3.55;;;;;24.70;96489.00;;;;8250983;28;20731;-66
2022/06/13 07:34:22;;;;;;;5.00;2.92;;;;;25.10;96497.00;;;;8251426;28;20286;-65
2022/06/13 07:38:27;;;;;;;4.20;3.28;;;;;25.20;96500.00;;;;8252460;28;20337;-68
2022/06/13 07:42:33;;;;;;;4.28;3.30;;;;;25.10;96489.00;;;;8252963;28;20286;-65
2022/06/13 07:46:36;;;;;;;5.57;3.67;;;;;25.30;96492.00;;;;8246890;28;20266;-64
2022/06/13 07:50:40;;;;;;;4.05;2.80;;;;;25.80;96494.00;;;;8252161;28;20210;-67
2022/06/13 07:54:45;;;;;;;4.90;3.03;;;;;25.90;96490.00;;;;8249768;28;20221;-66
2022/06/13 07:58:51;;;;;;;7.13;3.15;;;;;26.10;96496.00;;;;8252179;28;20207;-67
2022/06/13 08:02:54;;;;;;;6.55;3.28;;;;;25.80;96495.00;;;;8251312;28;20234;-66
2022/06/13 08:06:58;;;;;;;6.20;3.42;;;;;25.90;96505.00;;;;8248609;28;20234;-66
2022/06/13 08:11:06;;;;;;;5.18;3.58;;;;;26.30;96509.00;;;;8251904;28;20237;-66
2022/06/13 08:15:10;;;;;;;4.45;3.25;;;;;26.60;96507.00;;;;8251852;28;20203;-67
2022/06/13 08:19:13;;;;;;;7.05;3.33;;;;;27.10;96515.00;;;;8249649;28;20205;-66
2022/06/13 08:23:19;;;;;;;4.72;2.95;;;;;27.40;96522.00;;;;8250872;28;20203;-66
2022/06/13 08:27:26;;;;;;;4.93;3.00;;;;;27.40;96525.00;;;;8245701;28;20297;-67
2022/06/13 08:31:29;;;;;;;4.90;3.00;;;;;27.40;96532.00;;;;8247002;28;20533;-68
2022/06/13 08:35:33;;;;;;;5.55;3.45;;;;;27.50;96531.00;;;;8246034;28;20249;-68
2022/06/13 08:39:37;;;;;;;7.53;3.78;;;;;28.00;96541.00;;;;8246206;28;20736;-68
2022/06/13 08:44:16;;;;;;;7.28;3.35;;;;;27.60;96537.00;;;;8251655;28;20210;-68
2022/06/13 08:48:27;;;;;;;7.05;3.15;;;;;28.30;96535.00;;;;8247352;28;20306;-68
2022/06/13 08:52:36;;;;;;;5.32;3.10;;;;;28.00;96539.00;;;;8247702;28;20209;-68
2022/06/13 08:56:40;;;;;;;4.57;3.10;;;;;27.60;96548.00;;;;8248075;28;20195;-67
2022/06/13 09:00:48;;;;;;;6.60;3.08;;;;;28.00;96544.00;;;;8248194;28;20218;-67
2022/06/13 09:04:59;;;;;;;6.20;3.40;;;;;28.30;96536.00;;;;8242992;28;20783;-68
2022/06/13 09:09:11;;;;;;;6.72;3.08;;;;;28.40;96543.00;;;;8248209;28;20234;-68
2022/06/13 09:13:38;;;;;;;6.60;2.75;;;;;28.60;96552.00;;;;8246402;28;20684;-68
2022/06/13 09:17:51;;;;;;;6.00;2.60;;;;;28.90;96551.00;;;;8248364;28;20747;-67
2022/06/13 09:22:05;;;;;;;5.53;2.70;;;;;28.80;96556.00;;;;8248153;28;20203;-67
2022/06/13 09:26:15;;;;;;;6.53;3.08;;;;;28.70;96548.00;;;;8250229;28;20234;-69
2022/06/13 09:30:24;;;;;;;3.25;2.80;;;;;28.60;96548.00;;;;8243263;28;20218;-67
2022/06/13 09:34:44;;;;;;;8.35;2.35;;;;;29.00;96549.00;;;;8248754;28;20231;-67
2022/06/13 09:38:53;;;;;;;5.47;2.10;;;;;29.60;96559.00;;;;8245049;28;20198;-67
2022/06/13 09:43:10;;;;;;;4.50;2.40;;;;;29.80;96552.00;;;;8246058;28;20190;-69
2022/06/13 09:47:21;;;;;;;5.80;2.70;;;;;30.20;96558.00;;;;8249912;28;20235;-68
2022/06/13 09:51:38;;;;;;;4.72;2.03;;;;;30.80;96555.00;;;;8248041;28;20733;-69
2022/06/13 09:55:49;;;;;;;5.30;2.20;;;;;30.90;96548.00;;;;8250690;28;20217;-67
2022/06/13 10:00:08;;;;;;;4.55;2.45;;;;;30.70;96559.00;;;;8249264;28;20294;-67
2022/06/13 10:04:18;;;;;;;5.60;2.13;;;;;30.10;96565.00;;;;8256603;28;20321;-66
2022/06/13 10:08:30;;;;;;;5.75;1.90;;;;;30.20;96553.00;;;;8255342;28;20227;-67
2022/06/13 10:13:01;;;;;;;2.80;2.00;;;;;29.70;96559.00;;;;8253921;28;20234;-69
2022/06/13 10:17:15;;;;;;;4.22;1.80;;;;;30.30;96553.00;;;;8255249;28;20210;-71
2022/06/13 10:21:34;;;;;;;3.50;1.98;;;;;30.70;96558.00;;;;8252728;28;20205;-67
2022/06/13 10:25:51;;;;;;;4.88;2.15;;;;;30.80;96567.00;;;;8254640;28;20234;-68
2022/06/13 10:30:10;;;;;;;5.85;1.90;;;;;30.20;96570.00;;;;8254419;28;20490;-67
2022/06/13 10:34:25;;;;;;;4.28;2.05;;;;;30.10;96569.00;;;;8252953;28;20282;-68
2022/06/13 10:38:45;;;;;;;6.13;2.08;;;;;29.00;96566.00;;;;8249094;28;20708;-69
2022/06/13 10:42:49;;;;;;;7.50;1.83;;;;;30.10;96569.00;;;;8248957;28;20791;-67
2022/06/13 10:47:00;;;;;;;5.78;2.10;;;;;30.80;96567.00;;;;8254817;28;20311;-69
2022/06/13 10:51:05;;;;;;;5.30;2.00;;;;;31.20;96566.00;;;;8248766;28;20203;-67
2022/06/13 10:55:16;;;;;;;4.43;2.05;;;;;30.10;96578.00;;;;8254488;28;20656;-69
2022/06/13 10:59:25;;;;;;;4.30;1.98;;;;;28.10;96579.00;;;;8252563;28;20274;-69
2022/06/13 11:03:30;;;;;;;5.32;2.00;;;;;27.80;96576.00;;;;8253282;28;20239;-70
2022/06/13 11:07:36;;;;;;;6.57;2.20;;;;;28.90;96571.00;;;;8247868;28;20241;-69
2022/06/13 11:11:41;;;;;;;4.57;2.05;;;;;29.40;96576.00;;;;8249465;28;20578;-68
2022/06/13 11:24:46;;;;;;;4.35;1.83;;;;;29.20;96586.00;;;;8251611;28;20230;-67
2022/06/13 11:28:55;;;;;;;6.38;2.25;;;;;29.60;96591.00;;;;8247485;28;20258;-68
2022/06/13 11:33:02;;;;;;;4.18;2.08;;;;;29.80;96588.00;;;;8255879;28;20231;-68
2022/06/13 11:37:18;;;;;;;4.53;1.85;;;;;30.20;96595.00;;;;8247066;28;20297;-68
2022/06/13 11:41:24;;;;;;;4.95;2.35;;;;;30.00;96591.00;;;;8253227;28;20716;-69
2022/06/13 11:45:27;;;;;;;4.65;1.65;;;;;28.90;96594.00;;;;8252170;28;20643;-69
2022/06/13 11:49:37;;;;;;;4.63;2.00;;;;;29.40;96579.00;;;;8252050;28;20215;-69
2022/06/13 11:53:41;;;;;;;4.13;1.73;;;;;29.10;96587.00;;;;8251154;28;20293;-68
2022/06/13 11:57:52;;;;;;;6.32;2.15;;;;;28.60;96579.00;;;;8251403;28;20206;-69
2022/06/13 12:01:57;;;;;;;5.00;2.03;;;;;29.10;96597.00;;;;8249761;28;20266;-69
2022/06/13 12:06:10;;;;;;;6.00;1.83;;;;;29.40;96599.00;;;;8253519;28;20293;-68
2022/06/13 12:10:20;;;;;;;2.78;1.85;;;;;29.30;96596.00;;;;8246255;28;20231;-69
2022/06/13 12:14:25;;;;;;;4.05;1.80;;;;;29.70;96604.00;;;;8251375;28;20286;-69
2022/06/13 12:18:36;;;;;;;4.90;2.13;;;;;29.60;96608.00;;;;8248435;28;20203;-68
2022/06/13 12:22:49;;;;;;;3.58;1.75;;;;;29.80;96612.00;;;;8246774;28;20290;-69
2022/06/13 12:27:02;;;;;;;5.43;1.92;;;;;28.70;96610.00;;;;8247707;28;20203;-70
2022/06/13 12:31:09;;;;;;;4.97;1.80;;;;;28.60;96610.00;;;;8250866;28;20234;-69
2022/06/13 12:35:29;;;;;;;1.98;1.70;;;;;29.30;96612.00;;;;8250822;28;20546;-71
2022/06/13 12:39:50;;;;;;;4.00;1.83;;;;;29.80;96605.00;;;;8250600;28;20281;-69
2022/06/13 12:44:13;;;;;;;2.78;1.60;;;;;29.80;96629.00;;;;8254256;28;20230;-67
2022/06/13 12:48:30;;;;;;;4.15;1.70;;;;;29.50;96624.00;;;;8249966;28;20223;-68
2022/06/13 12:52:53;;;;;;;2.78;1.60;;;;;28.60;96607.00;;;;8246859;28;20203;-70
2022/06/13 12:57:06;;;;;;;8.15;2.10;;;;;28.50;96610.00;;;;8251853;28;20214;-69
2022/06/13 13:01:17;;;;;;;4.22;1.98;;;;;28.60;96611.00;;;;8251301;28;20237;-69
2022/06/13 13:05:30;;;;;;;2.95;1.55;;;;;28.20;96632.00;;;;8252099;28;20195;-67
2022/06/13 13:10:00;;;;;;;3.28;1.83;;;;;27.70;96640.00;;;;8253268;28;20309;-70
2022/06/13 13:14:13;;;;;;;1.73;1.55;;;;;28.20;96630.00;;;;8243022;28;20277;-68
2022/06/13 13:18:27;;;;;;;3.72;1.60;;;;;28.90;96631.00;;;;8253513;28;20202;-69
2022/06/13 13:22:39;;;;;;;4.88;1.60;;;;;29.30;96631.00;;;;8251647;28;20205;-72
2022/06/13 13:27:05;;;;;;;1.50;1.40;;;;;29.30;96638.00;;;;8251948;28;20203;-69
2022/06/13 13:31:17;;;;;;;2.70;1.52;;;;;29.30;96634.00;;;;8258630;28;20206;-69
2022/06/13 13:35:33;;;;;;;1.90;1.58;;;;;28.70;96646.00;;;;8254331;28;20210;-71
2022/06/13 13:39:43;;;;;;;4.00;1.70;;;;;28.30;96647.00;;;;8256840;28;20546;-72
2022/06/13 13:43:51;;;;;;;2.53;1.60;;;;;29.00;96671.00;;;;8257386;28;20314;-69
2022/06/13 13:48:00;;;;;;;3.28;1.60;;;;;29.30;96662.00;;;;8257582;28;20892;-68
2022/06/13 13:52:13;;;;;;;1.30;1.20;;;;;29.30;96671.00;;;;8258479;28;20739;-68
2022/06/13 13:56:25;;;;;;;2.45;1.65;;;;;29.40;96663.00;;;;8258000;28;20199;-69
2022/06/13 14:00:36;;;;;;;2.67;1.40;;;;;29.70;96680.00;;;;8253851;28;20203;-69
2022/06/13 14:04:52;;;;;;;3.28;1.50;;;;;29.10;96670.00;;;;8257540;28;20235;-69
2022/06/13 14:08:58;;;;;;;4.72;1.70;;;;;28.60;96677.00;;;;8254196;28;20233;-69
2022/06/13 14:13:18;;;;;;;1.60;1.50;;;;;28.40;96667.00;;;;8257064;28;20282;-70
2022/06/13 14:17:26;;;;;;;4.07;1.48;;;;;29.20;96662.00;;;;8258129;28;20749;-69
2022/06/13 14:21:58;;;;;;;1.40;1.30;;;;;29.30;96665.00;;;;8250887;28;20234;-69
2022/06/13 14:26:05;;;;;;;1.88;1.60;;;;;28.20;96662.00;;;;8250750;28;20199;-70
2022/06/13 14:39:07;;;;;;;1.70;1.60;;;;;26.40;96659.00;;;;8248701;28;21002;-69
2022/06/13 14:43:20;;;;;;;3.90;1.58;;;;;26.20;96667.00;;;;8246412;28;20203;-70
2022/06/13 14:47:35;;;;;;;4.10;1.63;;;;;26.80;96673.00;;;;8234749;28;20202;-70
2022/06/13 14:52:11;;;;;;;4.07;1.75;;;;;26.00;96669.00;;;;8251363;28;20296;-71
2022/06/13 14:56:38;;;;;;;1.95;1.52;;;;;25.60;96668.00;;;;8248224;28;20204;-69
2022/06/13 15:01:18;;;;;;;3.67;2.20;;;;;25.70;96674.00;;;;8242950;28;20206;-69
2022/06/13 15:05:26;;;;;;;2.25;1.80;;;;;25.90;96660.00;;;;8186759;28;20212;-67
2022/06/13 15:09:36;;;;;;;2.22;1.63;;;;;25.90;96674.00;;;;8177405;28;20328;-69
2022/06/13 15:13:42;;;;;;;4.10;1.80;;;;;25.40;96677.00;;;;8193984;28;20210;-70
2022/06/13 15:17:47;;;;;;;3.75;1.63;;;;;25.50;96681.00;;;;8178047;28;20219;-69
2022/06/13 15:21:53;;;;;;;3.15;1.92;;;;;26.10;96680.00;;;;8180723;28;20211;-69
2022/06/13 15:25:57;;;;;;;6.43;1.80;;;;;26.90;96675.00;;;;8177606;28;20279;-69
2022/06/13 15:30:31;;;;;;;4.20;2.13;;;;;27.20;96683.00;;;;8187148;28;20234;-72
2022/06/13 15:34:36;;;;;;;3.90;1.45;;;;;26.40;96686.00;;;;8191396;28;20246;-69
2022/06/13 15:38:42;;;;;;;5.00;1.90;;;;;25.80;96691.00;;;;8185330;28;20283;-70
2022/06/13 15:42:48;;;;;;;4.40;1.80;;;;;25.40;96690.00;;;;8187451;28;20300;-67
2022/06/13 15:46:53;;;;;;;2.88;2.08;;;;;25.20;96692.00;;;;8184817;29;20208;-67
2022/06/13 15:55:28;;;;;;;3.28;1.95;;;;;24.70;96682.00;;;;8441686;27;20576;-66
2022/06/13 15:59:48;;;;;;;4.72;2.03;;;;;24.40;96696.00;;;;8448547;28;20226;-66
2022/06/13 16:03:51;;;;;;;4.93;1.92;;;;;24.20;96694.00;;;;8441139;28;20715;-66
2022/06/13 16:07:58;;;;;;;3.10;1.90;;;;;24.80;96691.00;;;;8441685;28;20211;-67
2022/06/13 16:12:10;;;;;;;4.95;2.13;;;;;24.70;96695.00;;;;8433752;28;20230;-66
2022/06/13 16:16:20;;;;;;;2.95;1.98;;;;;24.70;96701.00;;;;8428095;28;20649;-66
2022/06/13 16:20:28;;;;;;;4.93;2.15;;;;;24.60;96708.00;;;;8438919;28;20602;-67
2022/06/13 16:24:32;;;;;;;8.32;2.03;;;;;24.80;96706.00;;;;8440620;28;20278;-68
2022/06/13 16:28:38;;;;;;;8.98;2.10;;;;;24.70;96706.00;;;;8440945;28;20283;-67
2022/06/13 16:32:47;;;;;;;3.90;2.03;;;;;24.90;96701.00;;;;8431408;28;20310;-66
2022/06/13 16:37:00;;;;;;;5.55;2.22;;;;;24.70;96709.00;;;;8440692;28;20226;-67
2022/06/13 16:41:03;;;;;;;9.63;2.58;;;;;24.40;96715.00;;;;8439491;28;20759;-67
2022/06/13 16:45:12;;;;;;;4.38;2.20;;;;;23.90;96712.00;;;;8427707;28;20279;-67
2022/06/13 16:49:29;;;;;;;5.97;2.42;;;;;23.50;96704.00;;;;8445092;28;20286;-67
2022/06/13 16:53:33;;;;;;;6.22;2.22;;;;;23.80;96712.00;;;;8424161;28;20238;-68
2022/06/13 16:57:49;;;;;;;6.15;2.50;;;;;24.70;96718.00;;;;8423179;28;20244;-68
2022/06/13 17:01:56;;;;;;;5.00;2.30;;;;;25.50;96721.00;;;;8422455;28;20226;-68
2022/06/13 17:06:00;;;;;;;9.13;2.20;;;;;25.90;96722.00;;;;8398729;28;20704;-67
2022/06/13 17:10:09;;;;;;;5.38;2.28;;;;;26.30;96732.00;;;;8404045;28;20283;-67
2022/06/13 17:14:12;;;;;;;5.68;2.47;;;;;26.70;96730.00;;;;8412595;28;20228;-68
2022/06/13 17:18:20;;;;;;;4.35;2.30;;;;;27.00;96734.00;;;;8410721;28;20196;-70
2022/06/13 17:22:24;;;;;;;3.95;2.40;;;;;27.10;96725.00;;;;8414086;28;20204;-69
2022/06/13 17:35:10;;;;;;;5.05;2.30;;;;;26.10;96731.00;;;;8398134;28;20231;-70
2022/06/13 17:39:14;;;;;;;6.25;2.30;;;;;25.40;96745.00;;;;8414175;28;20288;-68
2022/06/13 17:43:17;;;;;;;4.65;2.70;;;;;25.20;96748.00;;;;8413458;28;20699;-70
2022/06/13 17:47:20;;;;;;;3.95;2.30;;;;;24.90;96746.00;;;;8410778;28;20191;-72
2022/06/13 17:51:25;;;;;;;4.72;2.72;;;;;25.00;96757.00;;;;8410778;28;20218;-69
2022/06/13 17:55:33;;;;;;;5.05;2.20;;;;;25.40;96758.00;;;;8404119;28;20240;-69
2022/06/13 17:59:38;;;;;;;6.70;2.20;;;;;24.90;96765.00;;;;8411905;28;20287;-72
2022/06/13 18:03:41;;;;;;;7.20;2.22;;;;;24.50;96771.00;;;;8415535;28;20338;-70
2022/06/13 18:07:49;;;;;;;6.47;2.50;;;;;23.80;96758.00;;;;8423315;28;20206;-68
2022/06/13 18:11:52;;;;;;;3.35;2.08;;;;;23.20;96769.00;;;;8416181;28;20195;-68
2022/06/13 18:15:56;;;;;;;4.25;2.30;;;;;22.70;96776.00;;;;8413035;28;20226;-69
2022/06/13 18:20:01;;;;;;;4.63;1.90;;;;;22.30;96771.00;;;;8412149;28;20242;-68
2022/06/13 18:24:08;;;;;;;6.50;2.60;;;;;21.90;96776.00;;;;8410533;28;20329;-69
2022/06/13 18:28:13;;;;;;;5.65;2.35;;;;;21.60;96778.00;;;;8414207;28;20228;-68
2022/06/13 18:32:17;;;;;;;5.55;2.40;;;;;21.50;96777.00;;;;8414514;28;20200;-69
2022/06/13 18:36:20;;;;;;;3.78;2.13;;;;;21.30;96787.00;;;;8412454;28;20278;-68
2022/06/13 18:40:25;;;;;;;4.00;1.95;;;;;21.10;96787.00;;;;8401216;28;20192;-69
2022/06/13 18:44:29;;;;;;;7.20;2.33;;;;;20.80;96783.00;;;;8412977;28;20231;-68
2022/06/13 18:48:32;;;;;;;4.13;2.50;;;;;20.60;96789.00;;;;8413514;28;20280;-69
2022/06/13 18:52:35;;;;;;;7.20;2.15;;;;;20.30;96793.00;;;;8406873;28;20307;-69
2022/06/13 18:56:40;;;;;;;6.93;2.53;;;;;20.10;96793.00;;;;8409565;28;20307;-69
2022/06/13 19:00:43;;;;;;;6.97;2.67;;;;;19.90;96793.00;;;;8392400;28;20291;-70
2022/06/13 19:04:50;;;;;;;7.47;2.30;;;;;19.70;96797.00;;;;8395268;28;20241;-69
2022/06/13 19:08:55;;;;;;;5.47;2.25;;;;;19.50;96802.00;;;;8404208;28;20203;-67
2022/06/13 19:13:02;;;;;;;4.65;2.63;;;;;19.30;96793.00;;;;8407491;28;20223;-68
2022/06/13 19:17:07;;;;;;;5.25;2.33;;;;;19.20;96806.00;;;;8403266;28;20538;-67
2022/06/13 19:21:12;;;;;;;8.70;2.95;;;;;19.10;96817.00;;;;8404538;28;20203;-67
2022/06/13 19:25:15;;;;;;;7.88;2.65;;;;;19.00;96827.00;;;;8407750;28;20198;-67
2022/06/13 19:29:23;;;;;;;9.35;3.13;;;;;18.90;96824.00;;;;8417820;28;20206;-70
2022/06/13 19:33:27;;;;;;;6.97;3.05;;;;;18.70;96820.00;;;;8419179;28;20232;-73
2022/06/13 19:37:31;;;;;;;4.90;2.70;;;;;18.60;96829.00;;;;8412592;28;20200;-70
2022/06/13 19:41:35;;;;;;;5.63;2.47;;;;;18.40;96837.00;;;;8412217;28;20206;-68
2022/06/13 19:45:40;;;;;;;5.25;2.88;;;;;18.10;96839.00;;;;8416036;28;20200;-70
2022/06/13 19:49:44;;;;;;;5.80;2.38;;;;;17.80;96845.00;;;;8395108;28;20200;-68
2022/06/13 19:53:51;;;;;;;5.25;2.65;;;;;17.50;96841.00;;;;8417758;28;20678;-69
2022/06/13 19:57:58;;;;;;;9.00;2.67;;;;;17.30;96841.00;;;;8413418;28;20203;-67
2022/06/13 20:02:02;;;;;;;9.30;2.63;;;;;17.10;96843.00;;;;8403490;28;20250;-69
2022/06/13 20:10:30;;;;;;;5.85;3.03;;;;;16.80;96853.00;;;;8395533;28;20203;-70
2022/06/13 20:14:34;;;;;;;6.68;2.40;;;;;16.70;96848.00;;;;8401323;28;20240;-66
2022/06/13 20:18:41;;;;;;;6.38;2.75;;;;;16.50;96850.00;;;;8467957;27;20643;-69
2022/06/13 20:22:44;;;;;;;8.15;3.00;;;;;16.30;96850.00;;;;8480930;27;20232;-68
2022/06/13 20:26:48;;;;;;;10.50;3.03;;;;;16.30;96850.00;;;;8479251;27;20194;-70
2022/06/13 20:30:55;;;;;;;3.55;2.72;;;;;16.20;96838.00;;;;8470331;27;20197;-67
2022/06/13 20:35:00;;;;;;;9.10;3.47;;;;;16.10;96853.00;;;;8462735;27;20229;-68
2022/06/13 20:39:07;;;;;;;6.50;2.97;;;;;15.90;96843.00;;;;8466343;27;20205;-68
2022/06/13 20:43:15;;;;;;;6.20;3.17;;;;;15.80;96840.00;;;;8491612;27;20657;-68
2022/06/13 20:47:18;;;;;;;4.47;3.08;;;;;15.60;96835.00;;;;8490857;27;20198;-69
2022/06/13 20:51:24;;;;;;;6.72;3.35;;;;;15.40;96833.00;;;;8483990;27;20839;-71
2022/06/13 20:55:27;;;;;;;8.30;3.45;;;;;15.30;96827.00;;;;8484102;27;20229;-70
2022/06/13 20:59:33;;;;;;;5.32;2.97;;;;;15.10;96820.00;;;;8479744;27;20570;-69
2022/06/13 21:03:41;;;;;;;8.25;3.72;;;;;15.10;96809.00;;;;8487087;27;20316;-69
2022/06/13 21:07:46;;;;;;;5.60;3.20;;;;;15.20;96823.00;;;;8475486;27;20789;-69
2022/06/13 21:11:50;;;;;;;3.97;2.92;;;;;15.50;96821.00;;;;8482765;27;20721;-68
2022/06/13 21:15:58;;;;;;;9.20;3.08;;;;;15.80;96821.00;;;;8488779;27;20680;-69
2022/06/13 21:20:01;;;;;;;10.20;3.78;;;;;16.00;96819.00;;;;8481889;27;20194;-68
2022/06/13 21:24:08;;;;;;;6.85;2.80;;;;;16.10;96822.00;;;;8486744;27;20252;-69